createdAt,value
2017-12-27T00:02:07.415Z,4.20
2017-12-27T00:07:37.133Z,4.10
2017-12-27T00:10:09.422Z,4.10
2017-12-27T00:12:42.352Z,4.00
2017-12-27T00:15:14.580Z,3.90
2017-12-27T00:17:46.726Z,3.90
2017-12-27T00:20:19.012Z,3.90
2017-12-27T00:22:51.086Z,3.90
2017-12-27T00:25:23.314Z,3.80
2017-12-27T00:27:55.419Z,3.70
2017-12-27T00:30:27.606Z,3.70
2017-12-27T00:32:54.337Z,3.60
2017-12-27T00:35:20.321Z,3.60
2017-12-27T00:37:46.340Z,3.60
2017-12-27T00:40:12.289Z,3.60
2017-12-27T00:42:38.249Z,3.60
2017-12-27T00:45:04.246Z,3.50
2017-12-27T00:47:30.210Z,3.50
2017-12-27T00:49:56.209Z,3.40
2017-12-27T00:52:23.002Z,3.40
2017-12-27T00:54:49.017Z,3.40
2017-12-27T00:57:15.017Z,3.30
2017-12-27T00:59:40.994Z,3.40
2017-12-27T01:02:06.942Z,3.30
2017-12-27T01:04:32.910Z,3.30
2017-12-27T01:06:58.853Z,3.20
2017-12-27T01:09:24.870Z,3.10
2017-12-27T01:11:50.831Z,3.20
2017-12-27T01:14:16.790Z,3.20
2017-12-27T01:16:43.549Z,3.10
2017-12-27T01:19:09.497Z,3.00
2017-12-27T01:21:35.439Z,3.00
2017-12-27T01:24:01.433Z,3.00
2017-12-27T01:26:28.213Z,2.90
2017-12-27T01:28:54.207Z,2.90
2017-12-27T01:31:20.165Z,2.90
2017-12-27T01:33:46.893Z,2.90
2017-12-27T01:36:12.844Z,2.90
2017-12-27T01:38:38.901Z,2.80
2017-12-27T01:41:05.615Z,2.80
2017-12-27T01:43:31.581Z,2.80
2017-12-27T01:45:58.328Z,2.80
2017-12-27T01:48:25.154Z,2.80
2017-12-27T01:50:51.135Z,2.80
2017-12-27T01:53:17.134Z,2.70
2017-12-27T01:55:43.098Z,2.80
2017-12-27T01:58:09.833Z,2.70
2017-12-27T02:00:35.784Z,2.70
2017-12-27T02:03:02.526Z,2.70
2017-12-27T02:05:28.487Z,2.70
2017-12-27T02:07:55.306Z,2.60
2017-12-27T02:10:21.307Z,2.60
2017-12-27T02:12:53.457Z,2.70
2017-12-27T02:15:20.170Z,2.70
2017-12-27T02:17:46.164Z,2.70
2017-12-27T02:20:12.167Z,2.70
2017-12-27T02:22:38.880Z,2.50
2017-12-27T02:25:04.841Z,2.50
2017-12-27T02:27:30.820Z,2.50
2017-12-27T02:29:56.825Z,2.40
2017-12-27T02:32:22.821Z,2.30
2017-12-27T02:34:48.808Z,2.30
2017-12-27T02:37:15.505Z,2.30
2017-12-27T02:42:48.142Z,2.30
2017-12-27T02:45:14.153Z,2.30
2017-12-27T02:47:40.137Z,2.20
2017-12-27T02:50:06.123Z,2.20
2017-12-27T02:52:32.121Z,2.20
2017-12-27T02:54:58.109Z,2.20
2017-12-27T02:57:24.114Z,2.20
2017-12-27T02:59:50.081Z,2.20
2017-12-27T03:02:16.068Z,2.10
2017-12-27T03:04:42.028Z,2.10
2017-12-27T03:07:08.026Z,2.10
2017-12-27T03:09:33.994Z,2.10
2017-12-27T03:12:00.717Z,2.10
2017-12-27T03:14:26.745Z,2.00
2017-12-27T03:16:52.741Z,2.00
2017-12-27T03:19:18.693Z,2.00
2017-12-27T03:21:44.687Z,2.00
2017-12-27T03:24:11.417Z,2.00
2017-12-27T03:26:38.849Z,2.00
2017-12-27T03:29:04.865Z,2.00
2017-12-27T03:31:30.849Z,2.10
2017-12-27T03:33:56.826Z,2.10
2017-12-27T03:36:23.609Z,2.00
2017-12-27T03:38:49.560Z,2.00
2017-12-27T03:41:15.510Z,2.00
2017-12-27T03:43:41.502Z,2.00
2017-12-27T03:46:07.457Z,2.00
2017-12-27T03:48:33.458Z,2.10
2017-12-27T03:51:07.118Z,2.00
2017-12-27T03:53:33.122Z,2.00
2017-12-27T03:55:59.073Z,2.00
2017-12-27T03:58:25.043Z,2.00
2017-12-27T04:00:51.025Z,1.90
2017-12-27T04:03:16.974Z,2.00
2017-12-27T04:05:42.956Z,2.10
2017-12-27T04:08:08.905Z,2.00
2017-12-27T04:10:34.889Z,1.90
2017-12-27T04:13:00.844Z,1.80
2017-12-27T04:15:26.805Z,1.80
2017-12-27T04:17:52.812Z,1.70
2017-12-27T04:20:18.765Z,1.70
2017-12-27T04:22:44.744Z,1.60
2017-12-27T04:25:10.724Z,1.50
2017-12-27T04:27:36.737Z,1.50
2017-12-27T04:30:05.540Z,1.70
2017-12-27T04:32:31.518Z,1.80
2017-12-27T04:34:57.470Z,1.70
2017-12-27T04:37:23.510Z,1.90
2017-12-27T04:39:50.206Z,1.60
2017-12-27T04:42:16.165Z,1.60
2017-12-27T04:44:42.162Z,1.60
2017-12-27T04:47:08.206Z,1.50
2017-12-27T04:49:34.205Z,1.50
2017-12-27T04:52:00.902Z,1.40
2017-12-27T04:54:26.868Z,1.40
2017-12-27T04:56:52.900Z,1.40
2017-12-27T04:59:18.852Z,1.50
2017-12-27T05:01:44.853Z,1.50
2017-12-27T05:04:10.801Z,1.60
2017-12-27T05:06:36.749Z,1.60
2017-12-27T05:09:02.733Z,1.60
2017-12-27T05:11:28.693Z,1.70
2017-12-27T05:13:54.686Z,1.70
2017-12-27T05:16:21.433Z,1.70
2017-12-27T05:18:48.122Z,1.70
2017-12-27T05:21:14.122Z,1.70
2017-12-27T05:23:40.849Z,1.70
2017-12-27T05:26:06.812Z,1.60
2017-12-27T05:28:33.613Z,1.70
2017-12-27T05:30:59.566Z,1.70
2017-12-27T05:33:25.534Z,1.80
2017-12-27T05:35:52.277Z,1.90
2017-12-27T05:38:18.234Z,1.90
2017-12-27T05:40:44.973Z,2.10
2017-12-27T05:43:10.965Z,2.10
2017-12-27T05:45:36.917Z,2.20
2017-12-27T05:48:02.875Z,2.20
2017-12-27T05:50:28.844Z,2.30
2017-12-27T05:52:54.853Z,2.40
2017-12-27T05:55:21.614Z,2.50
2017-12-27T05:57:48.343Z,2.60
2017-12-27T06:00:14.301Z,2.60
2017-12-27T06:02:41.090Z,2.70
2017-12-27T06:05:07.081Z,2.70
2017-12-27T06:07:33.042Z,2.70
2017-12-27T06:09:59.766Z,2.80
2017-12-27T06:12:25.798Z,2.80
2017-12-27T06:14:52.108Z,2.90
2017-12-27T06:17:18.062Z,2.80
2017-12-27T06:19:44.066Z,2.80
2017-12-27T06:22:10.071Z,2.80
2017-12-27T06:24:36.765Z,2.90
2017-12-27T06:27:02.745Z,2.90
2017-12-27T06:29:28.737Z,2.90
2017-12-27T06:31:54.702Z,2.90
2017-12-27T06:34:20.660Z,2.90
2017-12-27T06:36:46.668Z,3.00
2017-12-27T06:39:12.672Z,3.10
2017-12-27T06:41:38.625Z,3.10
2017-12-27T06:44:04.592Z,3.10
2017-12-27T06:46:30.581Z,3.10
2017-12-27T06:48:56.549Z,3.10
2017-12-27T06:51:22.562Z,3.20
2017-12-27T06:53:48.541Z,3.20
2017-12-27T06:56:14.493Z,3.20
2017-12-27T06:58:41.201Z,3.20
2017-12-27T07:01:07.190Z,3.10
2017-12-27T07:03:33.921Z,3.10
2017-12-27T07:05:59.926Z,3.10
2017-12-27T07:08:25.897Z,3.10
2017-12-27T07:10:52.613Z,3.10
2017-12-27T07:13:18.613Z,3.10
2017-12-27T07:15:44.562Z,3.00
2017-12-27T07:18:10.540Z,3.00
2017-12-27T07:20:36.525Z,3.00
2017-12-27T07:23:02.484Z,3.00
2017-12-27T07:25:28.469Z,2.90
2017-12-27T07:27:55.226Z,3.00
2017-12-27T07:30:21.202Z,3.00
2017-12-27T07:32:47.202Z,3.00
2017-12-27T07:35:13.916Z,3.10
2017-12-27T07:37:39.886Z,3.10
2017-12-27T07:40:06.604Z,3.20
2017-12-27T07:42:32.557Z,3.20
2017-12-27T07:44:58.505Z,3.20
2017-12-27T07:47:24.539Z,3.20
2017-12-27T07:49:50.501Z,3.20
2017-12-27T07:52:16.496Z,3.20
2017-12-27T07:54:42.469Z,3.20
2017-12-27T07:57:08.478Z,3.20
2017-12-27T07:59:34.419Z,3.20
2017-12-27T08:02:00.378Z,3.30
2017-12-27T08:04:26.415Z,3.40
2017-12-27T08:06:52.378Z,3.40
2017-12-27T08:09:18.346Z,3.40
2017-12-27T08:11:44.342Z,3.50
2017-12-27T08:14:10.313Z,3.50
2017-12-27T08:16:36.273Z,3.50
2017-12-27T08:19:02.998Z,3.60
2017-12-27T08:21:28.944Z,3.60
2017-12-27T08:23:54.945Z,3.60
2017-12-27T08:26:20.894Z,3.70
2017-12-27T08:28:53.847Z,3.70
2017-12-27T08:31:20.533Z,3.80
2017-12-27T08:33:46.546Z,3.80
2017-12-27T08:36:12.498Z,3.90
2017-12-27T08:38:38.482Z,3.90
2017-12-27T08:41:04.466Z,3.90
2017-12-27T08:43:30.449Z,4.00
2017-12-27T08:45:56.492Z,4.00
2017-12-27T08:48:22.477Z,4.00
2017-12-27T08:50:49.200Z,4.10
2017-12-27T08:53:15.893Z,4.10
2017-12-27T08:55:41.880Z,4.10
2017-12-27T08:58:08.581Z,4.10
2017-12-27T09:00:34.529Z,4.10
2017-12-27T09:03:00.496Z,4.20
2017-12-27T09:05:26.475Z,4.30
2017-12-27T09:07:52.473Z,4.30
2017-12-27T09:10:19.184Z,4.40
2017-12-27T09:12:45.141Z,4.40
2017-12-27T09:15:11.134Z,4.30
2017-12-27T09:17:37.117Z,4.40
2017-12-27T09:20:03.069Z,4.50
2017-12-27T09:22:29.784Z,4.50
2017-12-27T09:24:55.785Z,4.50
2017-12-27T09:27:21.779Z,4.50
2017-12-27T09:29:47.734Z,4.60
2017-12-27T09:32:14.450Z,4.60
2017-12-27T09:34:40.440Z,4.60
2017-12-27T09:37:06.384Z,4.60
2017-12-27T09:39:32.349Z,4.60
2017-12-27T09:41:58.355Z,4.60
2017-12-27T09:44:24.324Z,4.70
2017-12-27T09:46:50.290Z,4.80
2017-12-27T09:49:16.276Z,4.80
2017-12-27T09:51:42.226Z,4.80
2017-12-27T09:54:08.309Z,4.70
2017-12-27T09:56:35.014Z,4.70
2017-12-27T09:59:00.998Z,4.60
2017-12-27T10:01:27.744Z,4.50
2017-12-27T10:03:53.729Z,4.50
2017-12-27T10:06:19.738Z,4.50
2017-12-27T10:08:46.484Z,4.40
2017-12-27T10:11:13.227Z,4.30
2017-12-27T10:13:39.987Z,4.20
2017-12-27T10:16:06.721Z,4.20
2017-12-27T10:18:32.703Z,4.20
2017-12-27T10:20:58.652Z,4.20
2017-12-27T10:23:24.652Z,4.10
2017-12-27T10:25:51.380Z,3.90
2017-12-27T10:28:17.364Z,3.90
2017-12-27T10:30:43.353Z,3.80
2017-12-27T10:33:09.338Z,3.90
2017-12-27T10:35:35.289Z,3.90
2017-12-27T10:38:01.285Z,3.90
2017-12-27T10:40:28.026Z,3.90
2017-12-27T10:42:54.143Z,3.90
2017-12-27T10:45:20.125Z,4.00
2017-12-27T10:47:46.844Z,4.10
2017-12-27T10:50:12.793Z,4.10
2017-12-27T10:52:38.782Z,4.10
2017-12-27T10:55:04.769Z,4.10
2017-12-27T10:57:30.809Z,4.10
2017-12-27T10:59:57.552Z,4.00
2017-12-27T11:02:23.526Z,4.00
2017-12-27T11:04:49.505Z,4.00
2017-12-27T11:07:15.502Z,4.10
2017-12-27T11:09:41.481Z,4.10
2017-12-27T11:12:07.492Z,4.10
2017-12-27T11:14:33.440Z,4.20
2017-12-27T11:17:00.164Z,4.10
2017-12-27T11:19:26.177Z,4.10
2017-12-27T11:21:52.897Z,4.20
2017-12-27T11:24:18.901Z,4.20
2017-12-27T11:26:44.853Z,4.30
2017-12-27T11:29:11.564Z,4.30
2017-12-27T11:31:38.299Z,4.20
2017-12-27T11:34:04.994Z,4.30
2017-12-27T11:36:30.976Z,4.30
2017-12-27T11:38:57.677Z,4.30
2017-12-27T11:41:23.666Z,4.30
2017-12-27T11:43:49.644Z,4.30
2017-12-27T11:46:15.642Z,4.50
2017-12-27T11:48:42.376Z,4.60
2017-12-27T11:51:08.350Z,4.50
2017-12-27T11:53:35.078Z,4.60
2017-12-27T11:56:01.038Z,4.60
2017-12-27T11:58:27.799Z,4.70
2017-12-27T12:00:53.787Z,4.70
2017-12-27T12:03:19.785Z,4.80
2017-12-27T12:05:45.777Z,4.90
2017-12-27T12:08:11.752Z,4.80
2017-12-27T12:10:37.730Z,4.80
2017-12-27T12:13:03.705Z,4.80
2017-12-27T12:15:30.426Z,4.80
2017-12-27T12:17:56.737Z,4.80
2017-12-27T12:20:22.721Z,4.80
2017-12-27T12:22:48.706Z,4.80
2017-12-27T12:25:14.677Z,4.70
2017-12-27T12:27:40.632Z,4.70
2017-12-27T12:30:07.426Z,4.70
2017-12-27T12:32:33.400Z,4.70
2017-12-27T12:34:59.353Z,4.70
2017-12-27T12:37:25.418Z,4.60
2017-12-27T12:39:52.141Z,4.70
2017-12-27T12:42:18.126Z,4.70
2017-12-27T12:44:44.943Z,4.60
2017-12-27T12:47:11.657Z,4.80
2017-12-27T12:49:37.617Z,4.70
2017-12-27T12:52:03.609Z,4.70
2017-12-27T12:54:29.572Z,4.80
2017-12-27T12:56:55.558Z,4.90
2017-12-27T12:59:22.308Z,5.10
2017-12-27T13:01:49.001Z,5.10
2017-12-27T13:04:14.949Z,5.10
2017-12-27T13:06:40.941Z,5.20
2017-12-27T13:09:06.900Z,5.20
2017-12-27T13:11:32.845Z,5.20
2017-12-27T13:13:58.828Z,5.20
2017-12-27T13:16:24.846Z,5.10
2017-12-27T13:18:50.801Z,5.00
2017-12-27T13:21:17.527Z,4.90
2017-12-27T13:23:43.501Z,4.90
2017-12-27T13:26:10.197Z,4.80
2017-12-27T13:28:36.205Z,4.80
2017-12-27T13:31:02.178Z,4.90
2017-12-27T13:33:28.167Z,4.80
2017-12-27T13:35:54.186Z,4.80
2017-12-27T13:38:20.169Z,4.70
2017-12-27T13:40:46.173Z,4.70
2017-12-27T13:43:12.862Z,4.70
2017-12-27T13:45:38.814Z,4.70
2017-12-27T13:48:04.794Z,4.80
2017-12-27T13:50:31.480Z,4.70
2017-12-27T13:52:57.492Z,4.70
2017-12-27T13:55:24.273Z,4.80
2017-12-27T13:57:50.227Z,4.80
2017-12-27T14:00:16.179Z,4.70
2017-12-27T14:02:42.149Z,4.60
2017-12-27T14:05:08.838Z,4.70
2017-12-27T14:07:34.834Z,4.70
2017-12-27T14:10:01.517Z,4.50
2017-12-27T14:12:27.553Z,4.50
2017-12-27T14:14:53.538Z,4.50
2017-12-27T14:17:19.481Z,4.60
2017-12-27T14:19:45.501Z,4.70
2017-12-27T14:22:11.450Z,4.70
2017-12-27T14:24:37.442Z,4.60
2017-12-27T14:27:03.430Z,4.60
2017-12-27T14:29:29.392Z,4.60
2017-12-27T14:31:55.445Z,4.60
2017-12-27T14:34:21.388Z,4.50
2017-12-27T14:36:47.348Z,4.50
2017-12-27T14:39:13.335Z,4.50
2017-12-27T14:41:39.305Z,4.60
2017-12-27T14:44:05.281Z,4.60
2017-12-27T14:46:32.002Z,4.50
2017-12-27T14:48:58.026Z,4.50
2017-12-27T14:51:24.046Z,4.50
2017-12-27T14:53:50.068Z,4.50
2017-12-27T14:56:16.026Z,4.40
2017-12-27T14:58:42.083Z,4.40
2017-12-27T15:01:08.066Z,4.40
2017-12-27T15:03:34.788Z,4.30
2017-12-27T15:06:00.734Z,4.30
2017-12-27T15:08:26.700Z,4.30
2017-12-27T15:10:52.706Z,4.30
2017-12-27T15:13:18.705Z,4.30
2017-12-27T15:15:44.653Z,4.20
2017-12-27T15:18:10.626Z,4.20
2017-12-27T15:20:37.340Z,4.10
2017-12-27T15:23:03.296Z,4.10
2017-12-27T15:25:29.275Z,4.10
2017-12-27T15:27:55.286Z,4.10
2017-12-27T15:30:22.069Z,4.10
2017-12-27T15:32:48.049Z,4.10
2017-12-27T15:35:14.080Z,4.10
2017-12-27T15:37:40.023Z,4.10
2017-12-27T15:40:05.993Z,4.10
2017-12-27T15:42:32.865Z,4.10
2017-12-27T15:44:58.899Z,4.10
2017-12-27T15:47:24.888Z,4.10
2017-12-27T15:49:51.623Z,4.00
2017-12-27T15:52:17.586Z,4.00
2017-12-27T15:54:43.569Z,4.00
2017-12-27T15:57:09.594Z,4.00
2017-12-27T15:59:35.639Z,4.10
2017-12-27T16:02:01.612Z,4.10
2017-12-27T16:04:27.683Z,4.10
2017-12-27T16:06:53.710Z,4.10
2017-12-27T16:09:19.678Z,4.20
2017-12-27T16:11:45.683Z,4.20
2017-12-27T16:14:11.720Z,4.20
2017-12-27T16:16:38.481Z,4.30
2017-12-27T16:19:04.462Z,4.20
2017-12-27T16:21:30.413Z,4.30
2017-12-27T16:23:56.446Z,4.20
2017-12-27T16:26:22.500Z,4.30
2017-12-27T16:28:48.521Z,4.30
2017-12-27T16:31:14.520Z,4.30
2017-12-27T16:33:41.237Z,4.40
2017-12-27T16:36:07.254Z,4.40
2017-12-27T16:38:33.217Z,4.30
2017-12-27T16:40:59.991Z,4.40
2017-12-27T16:43:26.747Z,4.50
2017-12-27T16:45:53.493Z,4.50
2017-12-27T16:48:20.251Z,4.50
2017-12-27T16:50:47.031Z,4.50
2017-12-27T16:53:13.099Z,4.50
2017-12-27T16:55:39.045Z,4.50
2017-12-27T16:58:05.040Z,4.50
2017-12-27T17:00:31.091Z,4.60
2017-12-27T17:02:57.157Z,4.50
2017-12-27T17:05:23.283Z,4.60
2017-12-27T17:07:49.287Z,4.60
2017-12-27T17:10:15.285Z,4.70
2017-12-27T17:12:41.326Z,4.70
2017-12-27T17:15:07.272Z,4.70
2017-12-27T17:17:34.692Z,4.80
2017-12-27T17:20:00.670Z,4.80
2017-12-27T17:22:27.364Z,4.80
2017-12-27T17:24:53.390Z,4.80
2017-12-27T17:27:19.451Z,4.80
2017-12-27T17:29:45.494Z,4.80
2017-12-27T17:32:11.527Z,4.80
2017-12-27T17:34:37.472Z,4.80
2017-12-27T17:37:03.486Z,4.80
2017-12-27T17:39:29.519Z,4.80
2017-12-27T17:41:55.569Z,4.90
2017-12-27T17:44:21.560Z,4.90
2017-12-27T17:46:47.583Z,4.90
2017-12-27T17:49:13.612Z,4.90
2017-12-27T17:51:39.568Z,5.00
2017-12-27T17:54:06.354Z,4.90
2017-12-27T17:56:32.371Z,5.00
2017-12-27T17:58:59.128Z,4.90
2017-12-27T18:01:25.864Z,5.00
2017-12-27T18:03:51.882Z,5.00
2017-12-27T18:06:17.906Z,5.00
2017-12-27T18:08:43.897Z,4.90
2017-12-27T18:11:10.616Z,5.00
2017-12-27T18:13:36.557Z,5.00
2017-12-27T18:16:02.543Z,5.00
2017-12-27T18:18:28.532Z,4.90
2017-12-27T18:20:54.556Z,5.00
2017-12-27T18:23:20.641Z,5.00
2017-12-27T18:25:46.673Z,4.90
2017-12-27T18:28:13.415Z,5.00
2017-12-27T18:30:40.130Z,5.00
2017-12-27T18:33:06.122Z,5.00
2017-12-27T18:35:32.147Z,5.00
2017-12-27T18:37:58.903Z,5.20
2017-12-27T18:40:25.672Z,5.10
2017-12-27T18:42:51.713Z,5.10
2017-12-27T18:45:17.716Z,5.10
2017-12-27T18:47:43.703Z,5.10
2017-12-27T18:50:09.725Z,5.20
2017-12-27T18:52:35.724Z,5.20
2017-12-27T18:55:01.742Z,5.30
2017-12-27T18:57:27.747Z,5.30
2017-12-27T18:59:53.826Z,5.30
2017-12-27T19:02:19.818Z,5.30
2017-12-27T19:04:45.768Z,5.30
2017-12-27T19:07:11.808Z,5.30
2017-12-27T19:09:37.832Z,5.40
2017-12-27T19:12:03.833Z,5.40
2017-12-27T19:14:30.697Z,5.30
2017-12-27T19:16:56.708Z,5.30
2017-12-27T19:19:22.769Z,5.30
2017-12-27T19:21:49.527Z,5.30
2017-12-27T19:24:15.525Z,5.30
2017-12-27T19:26:41.563Z,5.30
2017-12-27T19:29:07.560Z,5.30
2017-12-27T19:31:33.589Z,5.30
2017-12-27T19:33:59.672Z,5.30
2017-12-27T19:36:25.676Z,5.30
2017-12-27T19:38:51.658Z,5.20
2017-12-27T19:41:17.707Z,5.20
2017-12-27T19:43:44.461Z,5.20
2017-12-27T19:46:11.258Z,5.30
2017-12-27T19:48:37.264Z,5.30
2017-12-27T19:51:03.291Z,5.30
2017-12-27T19:53:30.028Z,5.30
2017-12-27T19:55:56.076Z,5.30
2017-12-27T19:58:22.861Z,5.40
2017-12-27T20:00:48.885Z,5.40
2017-12-27T20:03:14.921Z,5.40
2017-12-27T20:05:41.700Z,5.30
2017-12-27T20:08:07.701Z,5.30
2017-12-27T20:10:34.452Z,5.40
2017-12-27T20:13:01.211Z,5.40
2017-12-27T20:15:27.969Z,5.40
2017-12-27T20:17:54.773Z,5.50
2017-12-27T20:20:20.773Z,5.50
2017-12-27T20:22:46.858Z,5.50
2017-12-27T20:25:12.840Z,5.50
2017-12-27T20:27:39.621Z,5.50
2017-12-27T20:30:05.653Z,5.50
2017-12-27T20:32:31.657Z,5.50
2017-12-27T20:34:58.444Z,5.40
2017-12-27T20:37:24.455Z,5.40
2017-12-27T20:39:50.455Z,5.50
2017-12-27T20:42:16.544Z,5.40
2017-12-27T20:44:42.526Z,5.40
2017-12-27T20:47:08.573Z,5.50
2017-12-27T20:49:34.577Z,5.50
2017-12-27T20:52:00.584Z,5.60
2017-12-27T20:54:26.649Z,5.50
2017-12-27T20:56:52.690Z,5.50
2017-12-27T20:59:18.731Z,5.40
2017-12-27T21:01:44.737Z,5.40
2017-12-27T21:04:10.732Z,5.50
2017-12-27T21:06:38.244Z,5.40
2017-12-27T21:09:04.264Z,5.50
2017-12-27T21:11:31.049Z,5.30
2017-12-27T21:13:57.069Z,5.30
2017-12-27T21:16:23.876Z,5.50
2017-12-27T21:18:49.877Z,5.50
2017-12-27T21:21:15.867Z,5.40
2017-12-27T21:23:41.897Z,5.40
2017-12-27T21:26:07.900Z,5.40
2017-12-27T21:28:33.944Z,5.30
2017-12-27T21:30:59.935Z,5.40
2017-12-27T21:33:26.668Z,5.50
2017-12-27T21:35:52.773Z,5.50
2017-12-27T21:38:19.535Z,5.40
2017-12-27T21:40:45.556Z,5.40
2017-12-27T21:43:11.556Z,5.50
2017-12-27T21:45:38.332Z,5.40
2017-12-27T21:48:10.550Z,5.40
2017-12-27T21:50:36.569Z,5.40
2017-12-27T21:53:02.592Z,5.50
2017-12-27T21:55:28.674Z,5.40
2017-12-27T21:57:54.834Z,5.40
2017-12-27T22:03:19.212Z,5.40
2017-12-27T22:05:45.302Z,5.40
2017-12-27T22:08:11.286Z,5.40
2017-12-27T22:10:37.299Z,5.30
2017-12-27T22:13:03.307Z,5.20
2017-12-27T22:15:29.376Z,5.20
2017-12-27T22:17:55.425Z,5.20
2017-12-27T22:20:27.792Z,5.20
2017-12-27T22:22:54.564Z,5.20
2017-12-27T22:25:20.600Z,5.20
2017-12-27T22:27:46.595Z,5.20
2017-12-27T22:30:12.620Z,5.20
2017-12-27T22:32:40.109Z,5.30
2017-12-27T22:35:06.891Z,5.30
2017-12-27T22:37:32.902Z,5.20
2017-12-27T22:39:59.672Z,5.20
2017-12-27T22:42:25.689Z,5.20
2017-12-27T22:45:03.308Z,5.20
2017-12-27T22:47:30.378Z,5.60
2017-12-27T22:49:57.136Z,5.40
2017-12-27T22:52:23.911Z,5.30
2017-12-27T22:54:49.953Z,5.30
2017-12-27T22:57:15.977Z,5.30
2017-12-27T22:59:42.029Z,5.30
2017-12-27T23:02:08.037Z,5.30
2017-12-27T23:04:34.815Z,5.30
2017-12-27T23:07:00.853Z,5.30
2017-12-27T23:09:26.871Z,5.30
2017-12-27T23:11:53.751Z,5.30
2017-12-27T23:14:19.772Z,5.30
2017-12-27T23:16:45.801Z,5.30
2017-12-27T23:19:12.595Z,5.30
2017-12-27T23:21:38.625Z,5.30
2017-12-27T23:24:04.646Z,5.30
2017-12-27T23:26:30.688Z,5.30
2017-12-27T23:28:56.723Z,5.30
2017-12-27T23:31:22.782Z,5.30
2017-12-27T23:33:48.793Z,5.30
2017-12-27T23:36:14.840Z,5.30
2017-12-27T23:38:40.848Z,5.30
2017-12-27T23:41:07.640Z,5.30
2017-12-27T23:43:33.646Z,5.30
2017-12-27T23:45:59.684Z,5.20
2017-12-27T23:48:26.448Z,5.30
2017-12-27T23:50:52.519Z,5.30
2017-12-27T23:53:18.577Z,5.30
2017-12-27T23:55:44.589Z,5.40
2017-12-27T23:58:10.623Z,5.30
